createdAt,value
2022-08-19T00:02:04.542Z,25.00
2022-08-19T00:04:37.319Z,25.00
2022-08-19T00:07:07.110Z,24.90
2022-08-19T00:09:34.788Z,24.90
2022-08-19T00:12:02.536Z,24.90
2022-08-19T00:14:32.388Z,24.80
2022-08-19T00:17:00.013Z,24.80
2022-08-19T00:19:26.987Z,24.70
2022-08-19T00:21:54.400Z,24.80
2022-08-19T00:24:21.726Z,24.80
2022-08-19T00:26:49.064Z,24.80
2022-08-19T00:29:20.993Z,24.70
2022-08-19T00:31:50.757Z,24.80
2022-08-19T00:34:18.099Z,24.70
2022-08-19T00:36:45.820Z,24.80
2022-08-19T00:39:13.764Z,24.80
2022-08-19T00:41:41.437Z,24.80
2022-08-19T00:44:27.110Z,24.80
2022-08-19T00:46:59.968Z,24.80
2022-08-19T00:49:46.556Z,24.80
2022-08-19T00:52:19.958Z,24.70
2022-08-19T00:54:52.651Z,24.70
2022-08-19T00:57:35.220Z,24.70
2022-08-19T01:00:05.630Z,24.70
2022-08-19T01:02:34.086Z,24.70
2022-08-19T01:05:07.373Z,24.60
2022-08-19T01:07:38.258Z,24.70
2022-08-19T01:10:14.926Z,24.70
2022-08-19T01:12:42.218Z,24.70
2022-08-19T01:15:15.048Z,24.70
2022-08-19T01:17:43.952Z,24.70
2022-08-19T01:20:20.104Z,24.80
2022-08-19T01:22:58.500Z,24.80
2022-08-19T01:25:40.525Z,24.80
2022-08-19T01:28:10.595Z,24.80
2022-08-19T01:30:38.322Z,24.80
2022-08-19T01:33:06.555Z,24.80
2022-08-19T01:35:35.864Z,24.80
2022-08-19T01:38:09.418Z,24.70
2022-08-19T01:40:40.972Z,24.80
2022-08-19T01:43:08.776Z,24.70
2022-08-19T01:45:37.188Z,24.60
2022-08-19T01:48:04.906Z,24.70
2022-08-19T01:50:34.452Z,24.70
2022-08-19T01:53:06.747Z,24.60
2022-08-19T01:55:40.871Z,24.70
2022-08-19T01:58:22.072Z,24.60
2022-08-19T02:00:49.669Z,24.60
2022-08-19T02:03:17.274Z,24.60
2022-08-19T02:05:46.653Z,24.70
2022-08-19T02:08:13.798Z,24.60
2022-08-19T02:10:44.563Z,24.60
2022-08-19T02:13:14.444Z,24.60
2022-08-19T02:15:42.305Z,24.50
2022-08-19T02:18:09.438Z,24.50
2022-08-19T02:20:39.504Z,24.40
2022-08-19T02:23:13.565Z,24.50
2022-08-19T02:25:48.984Z,24.40
2022-08-19T02:28:18.816Z,24.40
2022-08-19T02:30:47.667Z,24.40
2022-08-19T02:33:15.077Z,24.30
2022-08-19T02:35:47.285Z,24.30
2022-08-19T02:38:27.144Z,24.30
2022-08-19T02:40:59.184Z,24.30
2022-08-19T02:43:28.524Z,24.20
2022-08-19T02:45:56.023Z,24.20
2022-08-19T02:48:25.603Z,24.10
2022-08-19T02:50:56.028Z,24.10
2022-08-19T02:53:28.579Z,24.10
2022-08-19T02:55:55.914Z,24.10
2022-08-19T02:58:25.201Z,24.10
2022-08-19T03:00:58.259Z,24.10
2022-08-19T03:03:25.428Z,24.10
2022-08-19T03:05:56.597Z,24.10
2022-08-19T03:08:26.504Z,24.00
2022-08-19T03:10:54.831Z,24.00
2022-08-19T03:13:22.470Z,24.00
2022-08-19T03:15:50.044Z,24.00
2022-08-19T03:18:18.151Z,24.00
2022-08-19T03:20:49.350Z,24.00
2022-08-19T03:23:17.843Z,23.90
2022-08-19T03:26:03.217Z,23.90
2022-08-19T03:28:35.523Z,23.90
2022-08-19T03:31:43.770Z,23.80
2022-08-19T03:33:58.506Z,23.90
2022-08-19T03:36:28.558Z,23.80
2022-08-19T03:39:02.005Z,23.90
2022-08-19T03:41:45.449Z,23.80
2022-08-19T03:44:27.290Z,23.80
2022-08-19T03:46:58.629Z,23.80
2022-08-19T03:49:30.664Z,23.90
2022-08-19T03:52:01.296Z,23.80
2022-08-19T03:54:29.298Z,23.80
2022-08-19T03:56:58.601Z,23.80
2022-08-19T03:59:35.095Z,23.80
2022-08-19T04:02:09.933Z,23.80
2022-08-19T04:04:39.868Z,23.80
2022-08-19T04:07:07.678Z,23.80
2022-08-19T04:09:37.553Z,23.80
2022-08-19T04:12:06.537Z,23.70
2022-08-19T04:14:34.763Z,23.70
2022-08-19T04:17:05.876Z,23.70
2022-08-19T04:19:35.912Z,23.70
2022-08-19T04:22:03.933Z,23.60
2022-08-19T04:24:31.946Z,23.60
2022-08-19T04:27:05.063Z,23.60
2022-08-19T04:29:32.310Z,23.60
2022-08-19T04:32:09.142Z,23.60
2022-08-19T04:35:01.237Z,23.60
2022-08-19T04:37:25.709Z,23.60
2022-08-19T04:40:11.636Z,23.60
2022-08-19T04:42:41.317Z,23.60
2022-08-19T04:45:14.323Z,23.70
2022-08-19T04:47:47.576Z,23.60
2022-08-19T04:50:19.675Z,23.60
2022-08-19T04:52:46.779Z,23.60
2022-08-19T04:55:14.642Z,23.60
2022-08-19T04:57:41.703Z,23.70
2022-08-19T05:00:11.396Z,23.70
2022-08-19T05:02:39.851Z,23.70
2022-08-19T05:05:07.677Z,23.60
2022-08-19T05:07:35.261Z,23.70
2022-08-19T05:10:03.664Z,23.70
2022-08-19T05:12:30.726Z,23.70
2022-08-19T05:14:59.598Z,23.80
2022-08-19T05:17:30.304Z,23.90
2022-08-19T05:20:19.010Z,23.90
2022-08-19T05:22:48.280Z,24.00
2022-08-19T05:25:20.683Z,24.00
2022-08-19T05:27:48.669Z,24.00
2022-08-19T05:30:17.340Z,24.00
2022-08-19T05:32:44.900Z,24.10
2022-08-19T05:35:12.786Z,24.10
2022-08-19T05:37:43.308Z,24.20
2022-08-19T05:40:11.505Z,24.20
2022-08-19T05:42:38.968Z,24.20
2022-08-19T05:45:07.520Z,24.30
2022-08-19T05:47:36.045Z,24.30
2022-08-19T05:50:09.766Z,24.30
2022-08-19T05:52:39.324Z,24.30
2022-08-19T05:55:13.425Z,24.40
2022-08-19T05:57:40.880Z,24.40
2022-08-19T06:00:12.562Z,24.50
2022-08-19T06:02:40.930Z,24.70
2022-08-19T06:05:10.018Z,24.80
2022-08-19T06:07:39.030Z,24.90
2022-08-19T06:10:10.215Z,25.10
2022-08-19T06:12:38.260Z,25.20
2022-08-19T06:15:12.703Z,25.40
2022-08-19T06:17:40.394Z,25.40
2022-08-19T06:20:12.903Z,25.60
2022-08-19T06:22:47.009Z,25.70
2022-08-19T06:25:15.744Z,25.60
2022-08-19T06:28:14.596Z,25.80
2022-08-19T06:30:30.631Z,25.80
2022-08-19T06:32:57.646Z,25.90
2022-08-19T06:35:24.870Z,26.20
2022-08-19T06:37:53.571Z,26.40
2022-08-19T06:40:20.741Z,26.60
2022-08-19T06:42:54.475Z,26.80
2022-08-19T06:45:24.820Z,27.00
2022-08-19T06:47:56.877Z,27.40
2022-08-19T06:50:26.771Z,27.60
2022-08-19T06:52:55.275Z,27.80
2022-08-19T06:55:22.764Z,28.00
2022-08-19T06:57:55.239Z,28.10
2022-08-19T07:00:22.698Z,28.10
2022-08-19T07:02:55.859Z,28.20
2022-08-19T07:05:26.620Z,28.10
2022-08-19T07:07:53.763Z,28.10
2022-08-19T07:10:24.857Z,28.10
2022-08-19T07:12:52.985Z,28.10
2022-08-19T07:15:22.347Z,28.30
2022-08-19T07:17:52.439Z,28.50
2022-08-19T07:20:19.890Z,28.70
2022-08-19T07:22:46.890Z,28.90
2022-08-19T07:25:14.339Z,29.10
2022-08-19T07:27:41.428Z,29.20
2022-08-19T07:30:14.412Z,29.40
2022-08-19T07:32:42.072Z,29.50
2022-08-19T07:35:10.634Z,29.60
2022-08-19T07:37:38.272Z,29.70
2022-08-19T07:40:08.518Z,29.90
2022-08-19T07:42:35.695Z,30.00
2022-08-19T07:45:03.540Z,30.10
2022-08-19T07:47:49.333Z,30.20
2022-08-19T07:50:21.007Z,30.30
2022-08-19T07:52:50.735Z,30.40
2022-08-19T07:55:42.620Z,30.40
2022-08-19T07:58:17.757Z,30.60
2022-08-19T08:00:47.972Z,30.70
2022-08-19T08:03:17.815Z,30.80
2022-08-19T08:06:04.045Z,30.80
2022-08-19T08:08:49.996Z,30.80
2022-08-19T08:11:21.252Z,31.10
2022-08-19T08:14:00.892Z,31.30
2022-08-19T08:16:39.618Z,31.40
2022-08-19T08:19:22.948Z,31.40
2022-08-19T08:22:07.254Z,31.50
2022-08-19T08:24:36.910Z,31.60
2022-08-19T08:27:11.430Z,31.50
2022-08-19T08:29:38.726Z,31.50
2022-08-19T08:32:14.743Z,31.60
2022-08-19T08:34:42.691Z,31.60
2022-08-19T08:37:09.802Z,31.70
2022-08-19T08:39:36.860Z,31.80
2022-08-19T08:42:27.204Z,31.90
2022-08-19T08:45:07.010Z,32.00
2022-08-19T08:47:42.030Z,32.20
2022-08-19T08:50:20.700Z,32.20
2022-08-19T08:52:57.059Z,32.30
2022-08-19T08:55:36.477Z,32.30
2022-08-19T08:58:20.812Z,32.40
2022-08-19T09:00:50.878Z,32.60
2022-08-19T09:03:26.830Z,32.60
2022-08-19T09:06:06.180Z,32.60
2022-08-19T09:09:15.216Z,32.70
2022-08-19T09:12:05.638Z,32.80
2022-08-19T09:14:52.413Z,32.70
2022-08-19T09:17:31.467Z,32.60
2022-08-19T09:20:14.840Z,32.60
2022-08-19T09:22:46.482Z,32.80
2022-08-19T09:25:26.821Z,32.80
2022-08-19T09:28:02.613Z,32.90
2022-08-19T09:30:35.129Z,33.00
2022-08-19T09:33:02.358Z,33.00
2022-08-19T09:35:31.266Z,33.10
2022-08-19T09:38:00.477Z,33.10
2022-08-19T09:40:30.934Z,33.10
2022-08-19T09:43:03.372Z,33.10
2022-08-19T09:45:37.193Z,33.20
2022-08-19T09:48:04.677Z,33.20
2022-08-19T09:50:36.800Z,33.30
2022-08-19T09:53:03.878Z,33.20
2022-08-19T09:55:33.886Z,33.10
2022-08-19T09:58:03.091Z,33.10
2022-08-19T10:00:32.008Z,33.10
2022-08-19T10:02:59.234Z,33.00
2022-08-19T10:05:44.942Z,33.00
2022-08-19T10:08:26.497Z,33.00
2022-08-19T10:10:56.037Z,33.00
2022-08-19T10:13:27.836Z,33.20
2022-08-19T10:16:02.703Z,33.20
2022-08-19T10:18:29.718Z,33.30
2022-08-19T10:21:08.586Z,33.40
2022-08-19T10:23:38.778Z,33.50
2022-08-19T10:26:07.964Z,33.80
2022-08-19T10:28:40.489Z,34.00
2022-08-19T10:31:59.970Z,34.20
2022-08-19T10:34:17.607Z,34.30
2022-08-19T10:36:56.367Z,34.40
2022-08-19T10:39:42.356Z,34.40
2022-08-19T10:42:14.748Z,34.30
2022-08-19T10:44:42.544Z,34.30
2022-08-19T10:47:17.785Z,34.30
2022-08-19T10:50:12.073Z,34.30
2022-08-19T10:52:49.046Z,34.40
2022-08-19T10:55:39.949Z,34.60
2022-08-19T10:58:16.923Z,34.60
2022-08-19T11:00:44.902Z,34.70
2022-08-19T11:03:13.553Z,34.60
2022-08-19T11:05:43.218Z,34.60
2022-08-19T11:08:23.446Z,34.40
2022-08-19T11:10:57.535Z,34.40
2022-08-19T11:13:25.592Z,34.50
2022-08-19T11:16:06.555Z,34.40
2022-08-19T11:18:44.529Z,34.40
2022-08-19T11:21:30.278Z,34.60
2022-08-19T11:24:02.945Z,34.60
2022-08-19T11:26:31.926Z,34.70
2022-08-19T11:29:00.360Z,34.50
2022-08-19T11:31:34.486Z,34.60
2022-08-19T11:34:04.356Z,34.60
2022-08-19T11:36:33.574Z,34.70
2022-08-19T11:39:01.264Z,34.80
2022-08-19T11:41:28.879Z,34.80
2022-08-19T11:43:56.801Z,34.90
2022-08-19T11:46:28.473Z,34.80
2022-08-19T11:49:00.043Z,35.00
2022-08-19T11:51:28.180Z,35.00
2022-08-19T11:53:57.584Z,35.10
2022-08-19T11:56:26.580Z,34.80
2022-08-19T11:58:55.552Z,34.80
2022-08-19T12:01:25.107Z,34.90
2022-08-19T12:03:55.352Z,34.80
2022-08-19T12:06:29.846Z,34.80
2022-08-19T12:09:01.732Z,34.90
2022-08-19T12:11:29.557Z,34.70
2022-08-19T12:14:02.177Z,34.60
2022-08-19T12:16:31.737Z,34.50
2022-08-19T12:19:05.209Z,34.40
2022-08-19T12:21:36.434Z,34.40
2022-08-19T12:24:06.700Z,34.20
2022-08-19T12:26:35.892Z,34.40
2022-08-19T12:29:23.390Z,34.40
2022-08-19T12:31:51.964Z,34.50
2022-08-19T12:34:21.004Z,34.50
2022-08-19T12:36:50.314Z,34.60
2022-08-19T12:39:18.230Z,34.60
2022-08-19T12:41:51.351Z,34.50
2022-08-19T12:44:29.242Z,34.60
2022-08-19T12:47:00.069Z,34.70
2022-08-19T12:49:52.629Z,34.60
2022-08-19T12:52:19.856Z,34.60
2022-08-19T12:54:53.977Z,34.60
2022-08-19T12:57:32.933Z,34.50
2022-08-19T13:00:26.726Z,34.40
2022-08-19T13:02:53.736Z,34.20
2022-08-19T13:05:30.039Z,34.30
2022-08-19T13:08:00.686Z,34.20
2022-08-19T13:10:36.481Z,34.20
2022-08-19T13:13:07.720Z,34.20
2022-08-19T13:15:40.586Z,34.30
2022-08-19T13:18:11.295Z,34.40
2022-08-19T13:20:41.617Z,34.40
2022-08-19T13:23:10.398Z,34.40
2022-08-19T13:25:37.898Z,34.40
2022-08-19T13:28:07.502Z,34.40
2022-08-19T13:31:00.692Z,34.40
2022-08-19T13:33:27.883Z,34.30
2022-08-19T13:36:01.558Z,34.30
2022-08-19T13:38:29.230Z,34.40
2022-08-19T13:40:57.000Z,34.40
2022-08-19T13:43:27.708Z,34.30
2022-08-19T13:45:57.690Z,34.30
2022-08-19T13:48:27.769Z,34.40
2022-08-19T13:50:55.665Z,34.40
2022-08-19T13:53:24.625Z,34.40
2022-08-19T13:55:52.476Z,34.40
2022-08-19T13:58:23.654Z,34.40
2022-08-19T14:00:52.208Z,34.40
2022-08-19T14:03:20.462Z,34.40
2022-08-19T14:05:48.020Z,34.40
2022-08-19T14:08:15.236Z,34.40
2022-08-19T14:10:45.282Z,34.50
2022-08-19T14:13:18.338Z,34.50
2022-08-19T14:15:46.184Z,34.50
2022-08-19T14:18:13.193Z,34.60
2022-08-19T14:20:43.392Z,34.60
2022-08-19T14:23:11.306Z,34.60
2022-08-19T14:25:38.772Z,34.70
2022-08-19T14:28:05.928Z,34.80
2022-08-19T14:30:39.050Z,34.80
2022-08-19T14:33:08.185Z,34.80
2022-08-19T14:35:40.412Z,34.70
2022-08-19T14:38:28.227Z,34.70
2022-08-19T14:41:28.268Z,34.60
2022-08-19T14:43:56.128Z,34.50
2022-08-19T14:46:28.211Z,34.50
2022-08-19T14:48:57.605Z,34.50
2022-08-19T14:51:30.178Z,34.50
2022-08-19T14:53:57.854Z,34.50
2022-08-19T14:56:29.056Z,34.50
2022-08-19T14:59:00.172Z,34.50
2022-08-19T15:01:28.671Z,34.50
2022-08-19T15:03:55.872Z,34.40
2022-08-19T15:06:25.280Z,34.40
2022-08-19T15:08:55.164Z,34.50
2022-08-19T15:11:28.314Z,34.40
2022-08-19T15:13:57.245Z,34.40
2022-08-19T15:16:26.317Z,34.30
2022-08-19T15:19:00.691Z,34.30
2022-08-19T15:21:30.372Z,34.20
2022-08-19T15:23:59.892Z,34.10
2022-08-19T15:26:29.079Z,34.10
2022-08-19T15:28:57.016Z,34.20
2022-08-19T15:31:28.370Z,34.10
2022-08-19T15:34:00.423Z,34.10
2022-08-19T15:36:28.455Z,34.00
2022-08-19T15:38:58.933Z,33.90
2022-08-19T15:41:30.919Z,33.80
2022-08-19T15:44:09.804Z,33.80
2022-08-19T15:46:42.726Z,33.80
2022-08-19T15:49:12.554Z,33.80
2022-08-19T15:51:43.023Z,33.80
2022-08-19T15:54:15.625Z,33.80
2022-08-19T15:57:06.232Z,33.80
2022-08-19T15:59:53.781Z,33.70
2022-08-19T16:02:44.625Z,33.60
2022-08-19T16:05:41.323Z,33.60
2022-08-19T16:08:09.839Z,33.50
2022-08-19T16:10:39.674Z,33.50
2022-08-19T16:13:06.941Z,33.40
2022-08-19T16:15:34.222Z,33.40
2022-08-19T16:18:04.364Z,33.40
2022-08-19T16:20:33.162Z,33.40
2022-08-19T16:23:04.905Z,33.40
2022-08-19T16:25:31.990Z,33.40
2022-08-19T16:28:06.486Z,33.40
2022-08-19T16:30:37.479Z,33.40
2022-08-19T16:33:04.661Z,33.40
2022-08-19T16:35:31.764Z,33.30
2022-08-19T16:37:58.706Z,33.30
2022-08-19T16:40:25.782Z,33.20
2022-08-19T16:42:53.627Z,33.20
2022-08-19T16:45:21.931Z,33.10
2022-08-19T16:47:48.998Z,33.10
2022-08-19T16:50:22.140Z,33.10
2022-08-19T16:52:52.335Z,33.20
2022-08-19T16:55:22.115Z,33.20
2022-08-19T16:57:50.630Z,33.30
2022-08-19T17:00:17.911Z,33.30
2022-08-19T17:02:44.928Z,33.30
2022-08-19T17:05:11.962Z,33.30
2022-08-19T17:07:38.937Z,33.30
2022-08-19T17:10:06.801Z,33.30
2022-08-19T17:12:34.700Z,33.30
2022-08-19T17:15:04.462Z,33.20
2022-08-19T17:17:33.158Z,33.20
2022-08-19T17:20:02.106Z,33.20
2022-08-19T17:22:29.811Z,33.20
2022-08-19T17:24:58.332Z,33.10
2022-08-19T17:27:31.468Z,33.10
2022-08-19T17:30:02.641Z,33.10
2022-08-19T17:43:42.626Z,32.90
2022-08-19T17:46:18.086Z,33.10
2022-08-19T17:48:52.842Z,33.00
2022-08-19T17:51:40.225Z,32.80
2022-08-19T17:54:11.311Z,32.70
2022-08-19T17:56:38.456Z,32.50
2022-08-19T17:59:08.445Z,32.40
2022-08-19T18:01:51.998Z,32.30
2022-08-19T18:04:24.494Z,32.20
2022-08-19T18:06:52.982Z,32.20
2022-08-19T18:09:24.473Z,32.10
2022-08-19T18:11:54.440Z,32.00
2022-08-19T18:14:33.808Z,32.00
2022-08-19T18:17:09.142Z,31.90
2022-08-19T18:19:43.568Z,31.90
2022-08-19T18:22:31.334Z,31.90
2022-08-19T18:24:59.349Z,31.80
2022-08-19T18:27:28.027Z,31.70
2022-08-19T18:29:59.387Z,31.60
2022-08-19T18:32:34.020Z,31.50
2022-08-19T18:35:06.470Z,31.50
2022-08-19T18:37:33.490Z,31.40
2022-08-19T18:40:18.979Z,31.40
2022-08-19T18:43:04.754Z,31.30
2022-08-19T18:45:50.534Z,31.30
2022-08-19T18:48:36.319Z,31.20
2022-08-19T18:51:04.407Z,31.20
2022-08-19T18:53:34.928Z,31.20
2022-08-19T18:56:01.983Z,31.20
2022-08-19T18:58:34.219Z,31.20
2022-08-19T19:01:38.707Z,31.10
2022-08-19T19:04:11.986Z,31.10
2022-08-19T19:06:42.289Z,31.10
2022-08-19T19:09:19.668Z,31.10
2022-08-19T19:11:52.056Z,31.10
2022-08-19T19:14:48.201Z,31.00
2022-08-19T19:17:17.235Z,31.00
2022-08-19T19:19:44.555Z,31.00
2022-08-19T19:22:19.697Z,31.00
2022-08-19T19:24:47.432Z,30.90
2022-08-19T19:27:18.537Z,30.90
2022-08-19T19:29:49.677Z,30.90
2022-08-19T19:32:39.021Z,30.90
2022-08-19T19:35:10.635Z,30.90
2022-08-19T19:37:37.687Z,30.80
2022-08-19T19:40:05.639Z,30.80
2022-08-19T19:42:32.825Z,30.80
2022-08-19T19:45:00.418Z,30.80
2022-08-19T19:47:28.513Z,30.80
2022-08-19T19:50:14.720Z,30.70
2022-08-19T19:52:46.304Z,30.70
2022-08-19T19:55:15.745Z,30.70
2022-08-19T19:57:42.776Z,30.60
2022-08-19T20:00:12.814Z,30.60
2022-08-19T20:02:39.842Z,30.60
2022-08-19T20:05:07.434Z,30.60
2022-08-19T20:07:54.338Z,30.60
2022-08-19T20:10:21.582Z,30.60
2022-08-19T20:12:48.615Z,30.60
2022-08-19T20:15:15.708Z,30.50
2022-08-19T20:17:43.026Z,30.50
2022-08-19T20:20:14.049Z,30.50
2022-08-19T20:22:47.477Z,30.50
2022-08-19T20:25:18.416Z,30.60
2022-08-19T20:27:50.065Z,30.60
2022-08-19T20:30:21.530Z,30.60
2022-08-19T20:32:50.893Z,30.50
2022-08-19T20:35:21.732Z,30.50
2022-08-19T20:37:54.893Z,30.40
2022-08-19T20:40:25.600Z,30.30
2022-08-19T20:42:54.365Z,30.30
2022-08-19T20:45:32.815Z,30.40
2022-08-19T20:48:03.267Z,30.30
2022-08-19T20:50:33.471Z,30.20
2022-08-19T20:53:01.062Z,30.10
2022-08-19T20:55:30.483Z,30.00
2022-08-19T20:57:58.725Z,30.00
2022-08-19T21:00:26.062Z,30.00
2022-08-19T21:02:53.066Z,30.00
2022-08-19T21:05:20.180Z,30.00
2022-08-19T21:07:47.188Z,30.00
2022-08-19T21:10:15.384Z,30.00
2022-08-19T21:12:44.372Z,30.10
2022-08-19T21:15:12.140Z,30.10
2022-08-19T21:17:40.075Z,30.00
2022-08-19T21:20:09.897Z,30.00
2022-08-19T21:22:37.210Z,30.10
2022-08-19T21:25:05.501Z,30.10
2022-08-19T21:27:33.012Z,30.00
2022-08-19T21:30:00.050Z,30.10
2022-08-19T21:32:26.997Z,30.00
2022-08-19T21:34:54.164Z,30.10
2022-08-19T21:37:25.041Z,30.00
2022-08-19T21:39:54.538Z,30.00
2022-08-19T21:42:25.192Z,30.00
2022-08-19T21:44:52.406Z,30.00
2022-08-19T21:47:19.391Z,29.90
2022-08-19T21:49:46.386Z,29.80
2022-08-19T21:52:13.651Z,29.80
2022-08-19T21:54:40.692Z,29.70
2022-08-19T21:57:10.807Z,29.70
2022-08-19T21:59:44.093Z,29.70
2022-08-19T22:02:21.795Z,29.60
2022-08-19T22:04:53.613Z,29.60
2022-08-19T22:07:22.227Z,29.50
2022-08-19T22:09:51.548Z,29.50
2022-08-19T22:12:28.388Z,29.40
2022-08-19T22:14:56.978Z,29.40
2022-08-19T22:17:24.629Z,29.40
2022-08-19T22:19:53.705Z,29.40
2022-08-19T22:22:32.685Z,29.30
2022-08-19T22:25:14.372Z,29.30
2022-08-19T22:28:03.924Z,29.30
2022-08-19T22:30:35.212Z,29.30
2022-08-19T22:33:07.994Z,29.30
2022-08-19T22:35:37.740Z,29.20
2022-08-19T22:38:07.344Z,29.10
2022-08-19T22:40:39.406Z,29.10
2022-08-19T22:43:14.428Z,29.10
2022-08-19T22:45:42.690Z,29.00
2022-08-19T22:48:14.152Z,29.00
2022-08-19T22:50:44.363Z,29.00
2022-08-19T22:53:12.336Z,29.00
2022-08-19T22:55:39.519Z,28.90
2022-08-19T22:58:06.593Z,28.80
2022-08-19T23:00:34.501Z,28.80
2022-08-19T23:03:02.290Z,28.90
2022-08-19T23:05:29.994Z,28.90
2022-08-19T23:07:58.719Z,28.80
2022-08-19T23:10:29.151Z,28.80
2022-08-19T23:13:00.212Z,28.90
2022-08-19T23:15:31.735Z,28.80
2022-08-19T23:18:01.565Z,28.80
2022-08-19T23:20:34.489Z,28.70
2022-08-19T23:23:24.866Z,28.70
2022-08-19T23:25:55.016Z,28.70
2022-08-19T23:28:41.751Z,28.70
2022-08-19T23:31:11.455Z,28.60
2022-08-19T23:33:51.090Z,28.60
2022-08-19T23:36:19.996Z,28.50
2022-08-19T23:38:51.945Z,28.40
2022-08-19T23:41:21.608Z,28.40
2022-08-19T23:43:51.397Z,28.40
2022-08-19T23:46:27.732Z,28.40
2022-08-19T23:48:56.929Z,28.40
2022-08-19T23:51:24.625Z,28.30
2022-08-19T23:53:51.666Z,28.30
2022-08-19T23:56:18.666Z,28.20
2022-08-19T23:58:47.138Z,28.20
